Latest Coastal Weather Observations for Browse Island

IDD60701

Issued at 5:41 am CST Thursday 5 March 2015 (issued every 10 minutes, with the page automatically refreshed every 10 minutes)

About coastal observations | Map of coastal stations | Coastal observations for NT | Marine services | Other Formats
Station Details ID: 200784 Name: BROWSE ISLAND Lat: -14.11 Lon: 123.55 Height: 3.7 m
Data from the previous 72 hours. | See also: Recent months for locations in Northern Territory
Date/Time
CST
Temp

°C
Wind Pressure Rain
since 9am
mm
Weather Cloud Vis
km
Sea
Height
m
Swell
Dir
 
Speed
knots
Gust
knots
hPa Trend Height
m
Period
s
Dir
05/05:30am 28.6 WSW 3 4 1007.3 - - - - - - - - -
05/05:00am 28.6 WSW 3 4 1007.0 - - - - - - - - -
05/04:30am 28.7 W 4 6 1007.3 - - - - - - - - -
05/04:00am 28.6 W 5 6 1007.1 - - - - - - - - -
05/03:30am 28.6 WNW 6 8 1007.3 - - - - - - - - -
05/03:00am 28.7 W 6 6 1007.6 - - - - - - - - -
05/02:30am 28.8 W 6 7 1007.8 - - - - - - - - -
05/02:00am 28.8 WNW 5 7 1007.9 - - - - - - - - -
05/01:30am 28.8 W 5 6 1008.1 - - - - - - - - -
05/01:00am 29.0 WNW 5 6 1008.3 - - - - - - - - -
05/12:30am 29.1 W 5 6 1008.8 - - - - - - - - -
05/12:00am 29.1 SW 4 5 1009.2 - - - - - - - - -
 
Date/Time
CST
Temp

°C
Wind Pressure Rain
since 9am
mm
Weather Cloud Vis
km
Sea
Height
m
Swell
Dir
 
Speed
knots
Gust
knots
hPa Trend Height
m
Period
s
Dir
04/11:30pm 29.1 SSW 4 5 1009.4 - - - - - - - - -
04/11:00pm 29.2 SW 4 5 1009.2 - - - - - - - - -
04/10:30pm 29.3 SW 4 5 1009.2 - - - - - - - - -
04/10:00pm 29.4 WSW 5 7 1009.2 - - - - - - - - -
04/09:30pm 29.2 WSW 5 6 1008.6 - - - - - - - - -
04/09:00pm 29.2 WSW 6 6 1008.2 - - - - - - - - -
04/08:30pm 29.2 W 6 7 1008.1 - - - - - - - - -
04/08:00pm 29.2 WSW 7 9 1007.5 - - - - - - - - -
04/07:30pm 29.1 W 8 9 1007.0 - - - - - - - - -
04/07:00pm 29.2 W 8 9 1006.9 - - - - - - - - -
04/06:30pm 29.2 W 7 8 1006.3 - - - - - - - - -
04/06:00pm 29.3 W 8 9 1005.9 - - - - - - - - -
04/05:30pm 29.5 WNW 9 11 1005.9 - - - - - - - - -
04/05:00pm 29.5 WNW 8 10 1005.7 - - - - - - - - -
04/04:30pm 29.4 WNW 7 9 1005.6 - - - - - - - - -
04/04:00pm 29.6 WNW 8 9 1005.9 - - - - - - - - -
04/03:30pm 29.5 WNW 9 10 1006.1 - - - - - - - - -
04/03:00pm 29.1 NW 8 10 1006.5 - - - - - - - - -
04/02:30pm 29.5 NW 9 10 1006.8 - - - - - - - - -
04/02:00pm 29.5 NW 9 11 1007.2 - - - - - - - - -
04/01:30pm 29.2 NNW 8 10 1007.3 - - - - - - - - -
04/01:00pm 29.4 NNW 7 8 1007.8 - - - - - - - - -
04/12:30pm 29.7 NNW 5 7 1007.9 - - - - - - - - -
04/12:00pm 29.4 N 5 6 1008.0 - - - - - - - - -
04/11:30am 29.2 N 6 7 1007.9 - - - - - - - - -
04/11:00am 28.8 NNW 8 9 1008.0 - - - - - - - - -
04/10:30am 28.8 NNW 7 8 1007.9 - - - - - - - - -
04/10:00am 28.7 N 7 9 1008.0 - - - - - - - - -
04/09:30am 28.6 N 7 9 1007.7 - - - - - - - - -
04/09:00am 28.5 NNW 8 9 1007.5 - - - - - - - - -
04/08:30am 28.4 N 7 8 1006.9 - - - - - - - - -
04/08:00am 28.3 N 7 9 1006.7 - - - - - - - - -
04/07:30am 28.1 N 6 8 1006.3 - - - - - - - - -
04/07:00am 28.0 N 7 9 1005.9 - - - - - - - - -
04/06:30am 27.8 N 7 8 1005.7 - - - - - - - - -
04/06:00am 28.0 N 8 10 1005.3 - - - - - - - - -
04/05:30am 28.0 N 8 9 1005.0 - - - - - - - - -
04/05:00am 27.8 NNE 9 11 1005.0 - - - - - - - - -
04/04:30am 27.9 N 9 10 1005.0 - - - - - - - - -
04/04:00am 28.0 N 7 10 1005.2 - - - - - - - - -
04/03:30am 28.0 N 8 10 1005.4 - - - - - - - - -
04/03:00am 28.0 NNE 7 9 1005.6 - - - - - - - - -
04/02:30am 27.9 NNE 9 11 1005.6 - - - - - - - - -
04/02:00am 27.8 NNE 10 12 1005.8 - - - - - - - - -
04/01:30am 27.8 NE 10 12 1006.1 - - - - - - - - -
04/01:00am 27.8 ENE 10 12 1006.4 - - - - - - - - -
04/12:30am 27.5 ENE 12 15 1006.6 - - - - - - - - -
04/12:00am 27.2 E 11 14 1006.8 - - - - - - - - -
 
Date/Time
CST
Temp

°C
Wind Pressure Rain
since 9am
mm
Weather Cloud Vis
km
Sea
Height
m
Swell
Dir
 
Speed
knots
Gust
knots
hPa Trend Height
m
Period
s
Dir
03/11:30pm 26.9 ESE 11 13 1006.7 - - - - - - - - -
03/11:00pm 27.0 SE 11 13 1006.7 - - - - - - - - -
03/10:30pm 27.1 ESE 9 11 1006.7 - - - - - - - - -
03/10:00pm 27.1 ESE 9 11 1006.5 - - - - - - - - -
03/09:30pm 27.2 SE 10 12 1006.5 - - - - - - - - -
03/09:00pm 26.8 ESE 9 12 1006.2 - - - - - - - - -
03/08:30pm 26.5 ESE 13 15 1005.9 - - - - - - - - -
03/08:00pm 27.6 SSE 8 11 1005.8 - - - - - - - - -
03/07:30pm 27.7 SSE 5 7 1005.4 - - - - - - - - -
03/07:00pm 27.7 S 5 7 1004.9 - - - - - - - - -
03/06:30pm 27.8 SSE 4 6 1004.9 - - - - - - - - -
03/06:00pm 27.6 SE 6 8 1005.0 - - - - - - - - -
03/05:30pm 27.9 SE 5 8 1004.9 - - - - - - - - -
03/05:00pm 28.0 SE 6 7 1004.9 - - - - - - - - -
03/04:30pm 28.1 ESE 7 8 1004.9 - - - - - - - - -
03/04:00pm 28.3 ESE 8 10 1005.0 - - - - - - - - -
03/03:30pm 28.3 ESE 9 11 1005.2 - - - - - - - - -
03/03:00pm 27.6 SE 9 12 1005.3 - - - - - - - - -
03/02:30pm 27.1 SE 10 12 1005.6 - - - - - - - - -
03/02:00pm 26.8 SSE 12 15 1005.8 - - - - - - - - -
03/01:30pm 27.1 SSE 17 20 1006.7 - - - - - - - - -
03/01:00pm 27.6 SSE 16 19 1007.3 - - - - - - - - -
03/12:30pm 27.4 S 13 16 1008.0 - - - - - - - - -
03/12:00pm 26.6 S 15 20 1008.4 - - - - - - - - -
03/11:30am 27.3 SSW 9 13 1008.4 - - - - - - - - -
03/11:00am 26.4 SSW 13 14 1008.4 - - - - - - - - -
03/10:30am 26.8 S 15 21 1008.2 - - - - - - - - -
03/10:26am 27.4 S 11 20 1008.3 - - - - - - - - -
03/10:00am 28.4 S 7 8 1008.2 - - - - - - - - -
03/09:30am 28.7 S 8 9 1008.5 - - - - - - - - -
03/09:00am 28.8 SSW 7 8 1008.2 - - - - - - - - -
03/08:30am 28.9 SSW 9 11 1008.1 - - - - - - - - -
03/08:00am 28.9 SW 11 12 1007.4 - - - - - - - - -
03/07:30am 28.7 SW 11 12 1006.9 - - - - - - - - -
03/07:00am 28.7 SW 10 12 1006.5 - - - - - - - - -
03/06:30am 28.8 SW 12 13 1006.2 - - - - - - - - -
03/06:00am 28.7 SW 13 15 1005.8 - - - - - - - - -
03/05:30am 28.7 SW 14 16 1005.3 - - - - - - - - -
03/05:00am 28.8 WSW 14 16 1004.9 - - - - - - - - -
03/04:30am 28.9 SW 14 16 1005.3 - - - - - - - - -
03/04:00am 28.8 WSW 15 17 1005.6 - - - - - - - - -
03/03:30am 28.8 SW 14 15 1005.7 - - - - - - - - -
03/03:00am 28.8 SW 12 14 1006.2 - - - - - - - - -
03/02:30am 28.8 SW 12 14 1006.2 - - - - - - - - -
03/02:00am 28.9 SW 13 14 1006.4 - - - - - - - - -
03/01:30am 29.0 WSW 13 15 1006.7 - - - - - - - - -
03/01:00am 29.1 WSW 13 15 1007.2 - - - - - - - - -
03/12:30am 29.1 WSW 12 14 1007.3 - - - - - - - - -
03/12:00am 29.2 WSW 12 14 1007.4 - - - - - - - - -
 
Date/Time
CST
Temp

°C
Wind Pressure Rain
since 9am
mm
Weather Cloud Vis
km
Sea
Height
m
Swell
Dir
 
Speed
knots
Gust
knots
hPa Trend Height
m
Period
s
Dir
02/11:30pm 29.1 WSW 12 14 1007.4 - - - - - - - - -
02/11:00pm 29.3 WSW 12 14 1007.3 - - - - - - - - -
02/10:30pm 29.1 WSW 11 14 1007.2 - - - - - - - - -
02/10:00pm 29.2 WSW 12 14 1006.7 - - - - - - - - -
02/09:30pm 29.1 WSW 13 14 1006.3 - - - - - - - - -
02/09:00pm 29.1 WSW 14 16 1006.2 - - - - - - - - -
02/08:30pm 29.1 WSW 14 16 1005.9 - - - - - - - - -
02/08:00pm 29.1 SW 13 15 1005.7 - - - - - - - - -
02/07:30pm 29.1 SW 14 15 1005.3 - - - - - - - - -
02/07:00pm 28.9 WSW 13 15 1004.7 - - - - - - - - -
02/06:30pm 29.1 WSW 15 17 1004.4 - - - - - - - - -
02/06:00pm 29.1 WSW 16 18 1004.2 - - - - - - - - -
02/05:30pm 29.1 WSW 15 18 1004.3 - - - - - - - - -
02/05:00pm 29.3 WSW 14 17 1004.4 - - - - - - - - -
02/04:30pm 29.3 WSW 14 17 1004.7 - - - - - - - - -
02/04:00pm 29.3 WSW 15 17 1004.9 - - - - - - - - -
02/03:30pm 29.2 SW 14 16 1005.2 - - - - - - - - -
02/03:00pm 29.4 SW 14 16 1005.4 - - - - - - - - -
02/02:30pm 29.3 SW 14 17 1005.8 - - - - - - - - -
02/02:00pm 29.2 SW 15 16 1006.3 - - - - - - - - -
02/01:30pm 29.3 SW 14 16 1006.6 - - - - - - - - -
02/01:00pm 29.3 WSW 14 17 1006.9 - - - - - - - - -
02/12:30pm 29.2 WSW 14 16 1007.2 - - - - - - - - -
02/12:00pm 29.1 SW 15 17 1007.2 - - - - - - - - -
02/11:30am 29.1 WSW 13 15 1007.5 - - - - - - - - -
02/11:00am 29.1 WSW 14 15 1007.6 - - - - - - - - -
02/10:30am 29.1 SW 13 15 1007.8 - - - - - - - - -
02/10:00am 29.1 WSW 13 16 1007.5 - - - - - - - - -
02/09:30am 29.0 SW 13 15 1007.6 - - - - - - - - -
02/09:00am 29.1 SW 12 14 1007.5 - - - - - - - - -
02/08:30am 29.0 WSW 13 15 1007.3 - - - - - - - - -
02/08:00am 29.1 WSW 14 16 1007.1 - - - - - - - - -
02/07:30am 28.9 WSW 15 17 1006.9 - - - - - - - - -

Other Formats:

Comma delimited format used in spreadsheet applications
http://www.bom.gov.au/fwo/IDD60701/IDD60701.94103.axf

JavaScript Object Notation format (JSON) in row-major order
http://www.bom.gov.au/fwo/IDD60701/IDD60701.94103.json